sensor_id;sensor_type;location;lat;lon;timestamp;P1;durP1;ratioP1;P2;durP2;ratioP2
60030;SDS011;45901;47.600;9.890;2022-12-05T08:52:12;5.97;;;3.50;;
60030;SDS011;45901;47.600;9.890;2022-12-05T11:02:39;3.60;;;1.67;;
60030;SDS011;45901;47.600;9.890;2022-12-05T11:05:08;6.50;;;2.20;;
60030;SDS011;45901;47.600;9.890;2022-12-05T11:07:37;0.90;;;0.80;;
60030;SDS011;45901;47.600;9.890;2022-12-05T11:10:18;0.97;;;0.70;;
60030;SDS011;45901;47.600;9.890;2022-12-05T11:12:52;0.60;;;0.50;;
60030;SDS011;45901;47.600;9.890;2022-12-05T11:15:26;1.03;;;0.70;;
60030;SDS011;45901;47.600;9.890;2022-12-05T11:17:58;0.93;;;0.60;;
60030;SDS011;45901;47.600;9.890;2022-12-05T11:20:43;2.07;;;1.03;;
60030;SDS011;45901;47.600;9.890;2022-12-05T11:23:26;1.77;;;0.97;;
60030;SDS011;45901;47.600;9.890;2022-12-05T11:25:56;1.07;;;0.80;;
60030;SDS011;45901;47.600;9.890;2022-12-05T11:28:31;2.00;;;1.10;;
60030;SDS011;45901;47.600;9.890;2022-12-05T11:31:08;1.53;;;1.03;;
60030;SDS011;45901;47.600;9.890;2022-12-05T11:34:11;6.60;;;2.50;;
60030;SDS011;45901;47.600;9.890;2022-12-05T11:36:45;4.60;;;2.40;;
60030;SDS011;45901;47.600;9.890;2022-12-05T11:39:18;6.87;;;3.27;;
60030;SDS011;45901;47.600;9.890;2022-12-05T11:48:16;1.93;;;1.33;;
60030;SDS011;45901;47.600;9.890;2022-12-05T11:51:29;3.00;;;1.57;;
60030;SDS011;45901;47.600;9.890;2022-12-05T11:54:12;4.40;;;1.90;;
60030;SDS011;45901;47.600;9.890;2022-12-05T11:57:16;2.70;;;1.80;;
60030;SDS011;45901;47.600;9.890;2022-12-05T12:06:53;1.43;;;0.83;;
60030;SDS011;45901;47.600;9.890;2022-12-05T12:09:44;1.43;;;0.90;;
60030;SDS011;45901;47.600;9.890;2022-12-05T12:12:27;0.83;;;0.53;;
60030;SDS011;45901;47.600;9.890;2022-12-05T12:15:24;1.13;;;0.73;;
60030;SDS011;45901;47.600;9.890;2022-12-05T12:21:28;1.53;;;0.90;;
60030;SDS011;45901;47.600;9.890;2022-12-05T12:24:16;4.50;;;0.93;;
60030;SDS011;45901;47.600;9.890;2022-12-05T12:27:02;1.17;;;0.83;;
60030;SDS011;45901;47.600;9.890;2022-12-05T12:29:44;4.17;;;2.73;;
60030;SDS011;45901;47.600;9.890;2022-12-05T12:32:28;7.33;;;3.90;;
60030;SDS011;45901;47.600;9.890;2022-12-05T12:35:20;4.70;;;2.60;;
60030;SDS011;45901;47.600;9.890;2022-12-05T12:38:15;2.00;;;0.90;;
60030;SDS011;45901;47.600;9.890;2022-12-05T12:41:05;0.93;;;0.47;;
60030;SDS011;45901;47.600;9.890;2022-12-05T12:43:46;1.30;;;0.60;;
60030;SDS011;45901;47.600;9.890;2022-12-05T12:46:29;1.03;;;0.80;;
60030;SDS011;45901;47.600;9.890;2022-12-05T12:49:15;2.50;;;1.00;;
60030;SDS011;45901;47.600;9.890;2022-12-05T12:52:00;1.63;;;1.10;;
60030;SDS011;45901;47.600;9.890;2022-12-05T12:54:37;3.57;;;1.63;;
60030;SDS011;45901;47.600;9.890;2022-12-05T12:57:33;4.20;;;2.43;;
60030;SDS011;45901;47.600;9.890;2022-12-05T13:00:21;6.17;;;2.80;;
60030;SDS011;45901;47.600;9.890;2022-12-05T13:03:01;2.50;;;1.60;;
60030;SDS011;45901;47.600;9.890;2022-12-05T13:05:37;2.07;;;1.07;;
60030;SDS011;45901;47.600;9.890;2022-12-05T13:08:10;3.00;;;0.90;;
60030;SDS011;45901;47.600;9.890;2022-12-05T13:10:47;2.23;;;0.87;;
60030;SDS011;45901;47.600;9.890;2022-12-05T13:13:15;1.70;;;1.00;;
60030;SDS011;45901;47.600;9.890;2022-12-05T13:15:47;2.70;;;1.70;;
60030;SDS011;45901;47.600;9.890;2022-12-05T13:18:19;5.07;;;2.63;;
60030;SDS011;45901;47.600;9.890;2022-12-05T13:20:49;4.67;;;2.43;;
60030;SDS011;45901;47.600;9.890;2022-12-05T13:23:20;2.60;;;1.20;;
60030;SDS011;45901;47.600;9.890;2022-12-05T13:25:53;2.13;;;1.57;;
60030;SDS011;45901;47.600;9.890;2022-12-05T13:28:27;3.00;;;1.70;;
60030;SDS011;45901;47.600;9.890;2022-12-05T13:30:57;2.90;;;1.80;;
60030;SDS011;45901;47.600;9.890;2022-12-05T13:33:41;4.00;;;2.40;;
60030;SDS011;45901;47.600;9.890;2022-12-05T13:36:11;8.53;;;3.90;;
60030;SDS011;45901;47.600;9.890;2022-12-05T13:38:59;5.70;;;3.27;;
60030;SDS011;45901;47.600;9.890;2022-12-05T13:41:49;4.50;;;2.37;;
60030;SDS011;45901;47.600;9.890;2022-12-05T13:44:37;6.43;;;2.63;;
60030;SDS011;45901;47.600;9.890;2022-12-05T13:47:18;2.53;;;1.47;;
60030;SDS011;45901;47.600;9.890;2022-12-05T13:49:54;3.67;;;1.77;;
60030;SDS011;45901;47.600;9.890;2022-12-05T13:52:29;2.03;;;1.30;;
60030;SDS011;45901;47.600;9.890;2022-12-05T13:55:00;4.10;;;1.60;;
60030;SDS011;45901;47.600;9.890;2022-12-05T13:57:51;2.80;;;1.50;;
60030;SDS011;45901;47.600;9.890;2022-12-05T14:00:30;2.77;;;1.70;;
60030;SDS011;45901;47.600;9.890;2022-12-05T14:03:02;3.23;;;1.80;;
60030;SDS011;45901;47.600;9.890;2022-12-05T14:05:36;1.20;;;0.90;;
60030;SDS011;45901;47.600;9.890;2022-12-05T14:11:20;6.13;;;2.90;;
60030;SDS011;45901;47.600;9.890;2022-12-05T14:13:49;4.77;;;2.20;;
60030;SDS011;45901;47.600;9.890;2022-12-05T14:19:36;2.93;;;1.73;;
60030;SDS011;45901;47.600;9.890;2022-12-05T14:25:42;2.10;;;1.40;;
60030;SDS011;45901;47.600;9.890;2022-12-05T14:28:31;1.87;;;1.23;;
60030;SDS011;45901;47.600;9.890;2022-12-05T14:31:19;2.20;;;1.43;;
60030;SDS011;45901;47.600;9.890;2022-12-05T14:34:15;2.53;;;1.57;;
60030;SDS011;45901;47.600;9.890;2022-12-05T14:36:56;1.90;;;1.17;;
60030;SDS011;45901;47.600;9.890;2022-12-05T14:39:32;2.67;;;1.23;;
60030;SDS011;45901;47.600;9.890;2022-12-05T14:42:05;3.33;;;1.63;;
60030;SDS011;45901;47.600;9.890;2022-12-05T14:44:48;4.03;;;2.40;;
60030;SDS011;45901;47.600;9.890;2022-12-05T14:47:19;3.90;;;2.40;;
60030;SDS011;45901;47.600;9.890;2022-12-05T14:49:53;3.97;;;1.97;;
60030;SDS011;45901;47.600;9.890;2022-12-05T14:52:29;2.83;;;1.70;;
60030;SDS011;45901;47.600;9.890;2022-12-05T14:55:03;2.80;;;1.63;;
60030;SDS011;45901;47.600;9.890;2022-12-05T14:57:41;2.43;;;1.60;;
60030;SDS011;45901;47.600;9.890;2022-12-05T15:00:17;3.47;;;1.83;;
60030;SDS011;45901;47.600;9.890;2022-12-05T15:02:49;3.33;;;1.97;;
60030;SDS011;45901;47.600;9.890;2022-12-05T15:05:21;3.93;;;1.90;;
60030;SDS011;45901;47.600;9.890;2022-12-05T15:07:53;2.23;;;1.57;;
60030;SDS011;45901;47.600;9.890;2022-12-05T15:10:23;2.43;;;1.47;;
60030;SDS011;45901;47.600;9.890;2022-12-05T15:12:55;1.97;;;1.30;;
60030;SDS011;45901;47.600;9.890;2022-12-05T15:15:28;1.87;;;1.30;;
60030;SDS011;45901;47.600;9.890;2022-12-05T15:18:08;2.07;;;1.40;;
60030;SDS011;45901;47.600;9.890;2022-12-05T15:20:48;3.73;;;2.37;;
60030;SDS011;45901;47.600;9.890;2022-12-05T15:23:39;3.13;;;2.30;;
60030;SDS011;45901;47.600;9.890;2022-12-05T15:26:14;3.87;;;2.50;;
60030;SDS011;45901;47.600;9.890;2022-12-05T15:28:59;12.77;;;7.90;;
60030;SDS011;45901;47.600;9.890;2022-12-05T15:31:30;8.27;;;4.83;;
60030;SDS011;45901;47.600;9.890;2022-12-05T15:34:04;9.57;;;6.17;;
60030;SDS011;45901;47.600;9.890;2022-12-05T15:36:42;9.70;;;6.10;;
60030;SDS011;45901;47.600;9.890;2022-12-05T15:39:16;10.60;;;5.47;;
60030;SDS011;45901;47.600;9.890;2022-12-05T15:41:50;9.77;;;5.90;;
60030;SDS011;45901;47.600;9.890;2022-12-05T15:44:17;10.07;;;5.40;;
60030;SDS011;45901;47.600;9.890;2022-12-05T15:46:50;10.83;;;7.13;;
60030;SDS011;45901;47.600;9.890;2022-12-05T15:49:23;12.27;;;7.93;;
60030;SDS011;45901;47.600;9.890;2022-12-05T15:51:55;13.97;;;8.60;;
60030;SDS011;45901;47.600;9.890;2022-12-05T15:54:43;18.10;;;9.97;;
60030;SDS011;45901;47.600;9.890;2022-12-05T15:57:12;22.13;;;12.60;;
60030;SDS011;45901;47.600;9.890;2022-12-05T15:59:44;22.50;;;13.07;;
60030;SDS011;45901;47.600;9.890;2022-12-05T16:02:17;20.13;;;12.13;;
60030;SDS011;45901;47.600;9.890;2022-12-05T16:04:53;15.60;;;5.37;;
60030;SDS011;45901;47.600;9.890;2022-12-05T16:07:23;103.97;;;7.80;;
60030;SDS011;45901;47.600;9.890;2022-12-05T16:09:55;143.43;;;9.70;;
60030;SDS011;45901;47.600;9.890;2022-12-05T16:12:26;299.70;;;16.43;;
60030;SDS011;45901;47.600;9.890;2022-12-05T16:15:01;223.90;;;12.00;;
60030;SDS011;45901;47.600;9.890;2022-12-05T16:17:36;40.13;;;5.50;;
60030;SDS011;45901;47.600;9.890;2022-12-05T16:20:10;66.23;;;5.40;;
60030;SDS011;45901;47.600;9.890;2022-12-05T16:22:55;6.30;;;4.07;;
60030;SDS011;45901;47.600;9.890;2022-12-05T16:25:27;7.77;;;4.87;;
60030;SDS011;45901;47.600;9.890;2022-12-05T16:28:02;10.53;;;5.33;;
60030;SDS011;45901;47.600;9.890;2022-12-05T16:30:51;16.77;;;8.37;;
60030;SDS011;45901;47.600;9.890;2022-12-05T16:33:21;12.53;;;7.70;;
60030;SDS011;45901;47.600;9.890;2022-12-05T16:35:50;10.67;;;6.40;;
60030;SDS011;45901;47.600;9.890;2022-12-05T16:38:19;7.10;;;4.37;;
60030;SDS011;45901;47.600;9.890;2022-12-05T16:40:54;7.43;;;4.33;;
60030;SDS011;45901;47.600;9.890;2022-12-05T16:43:25;8.50;;;5.10;;
60030;SDS011;45901;47.600;9.890;2022-12-05T16:52:02;6.63;;;4.03;;
60030;SDS011;45901;47.600;9.890;2022-12-05T16:54:38;4.57;;;3.00;;
60030;SDS011;45901;47.600;9.890;2022-12-05T16:57:07;6.07;;;3.37;;
60030;SDS011;45901;47.600;9.890;2022-12-05T16:59:38;4.30;;;2.73;;
60030;SDS011;45901;47.600;9.890;2022-12-05T17:02:09;4.77;;;2.67;;
60030;SDS011;45901;47.600;9.890;2022-12-05T17:04:39;7.20;;;4.37;;
60030;SDS011;45901;47.600;9.890;2022-12-05T17:07:08;7.80;;;4.00;;
60030;SDS011;45901;47.600;9.890;2022-12-05T17:09:35;6.13;;;3.50;;
60030;SDS011;45901;47.600;9.890;2022-12-05T17:12:03;8.67;;;4.53;;
60030;SDS011;45901;47.600;9.890;2022-12-05T17:14:36;5.53;;;4.23;;
60030;SDS011;45901;47.600;9.890;2022-12-05T17:17:04;8.40;;;4.93;;
60030;SDS011;45901;47.600;9.890;2022-12-05T17:19:37;11.40;;;5.93;;
60030;SDS011;45901;47.600;9.890;2022-12-05T17:22:04;11.97;;;6.57;;
60030;SDS011;45901;47.600;9.890;2022-12-05T17:24:33;9.87;;;6.97;;
60030;SDS011;45901;47.600;9.890;2022-12-05T17:27:00;10.23;;;6.90;;
60030;SDS011;45901;47.600;9.890;2022-12-05T17:29:27;14.63;;;7.40;;
60030;SDS011;45901;47.600;9.890;2022-12-05T17:31:55;13.33;;;6.73;;
60030;SDS011;45901;47.600;9.890;2022-12-05T17:34:22;17.23;;;9.03;;
60030;SDS011;45901;47.600;9.890;2022-12-05T17:36:49;12.97;;;7.70;;
60030;SDS011;45901;47.600;9.890;2022-12-05T17:39:16;12.77;;;7.20;;
60030;SDS011;45901;47.600;9.890;2022-12-05T17:41:45;9.33;;;6.57;;
60030;SDS011;45901;47.600;9.890;2022-12-05T17:44:12;10.40;;;6.60;;
60030;SDS011;45901;47.600;9.890;2022-12-05T17:46:40;10.43;;;6.07;;
60030;SDS011;45901;47.600;9.890;2022-12-05T17:49:08;9.20;;;6.13;;
60030;SDS011;45901;47.600;9.890;2022-12-05T17:51:39;7.13;;;4.60;;
60030;SDS011;45901;47.600;9.890;2022-12-05T17:54:06;7.83;;;4.67;;
60030;SDS011;45901;47.600;9.890;2022-12-05T17:56:34;6.07;;;4.00;;
60030;SDS011;45901;47.600;9.890;2022-12-05T17:59:03;5.70;;;4.10;;
60030;SDS011;45901;47.600;9.890;2022-12-05T18:01:30;6.90;;;4.80;;
60030;SDS011;45901;47.600;9.890;2022-12-05T18:03:57;6.20;;;3.93;;
60030;SDS011;45901;47.600;9.890;2022-12-05T18:06:24;193.47;;;11.33;;
60030;SDS011;45901;47.600;9.890;2022-12-05T18:08:52;252.70;;;14.80;;
60030;SDS011;45901;47.600;9.890;2022-12-05T18:11:20;96.57;;;9.27;;
60030;SDS011;45901;47.600;9.890;2022-12-05T18:13:47;12.73;;;6.33;;
60030;SDS011;45901;47.600;9.890;2022-12-05T18:16:15;11.23;;;6.53;;
60030;SDS011;45901;47.600;9.890;2022-12-05T18:18:43;10.60;;;6.60;;
60030;SDS011;45901;47.600;9.890;2022-12-05T18:21:10;9.27;;;6.33;;
60030;SDS011;45901;47.600;9.890;2022-12-05T18:23:38;9.87;;;6.90;;
60030;SDS011;45901;47.600;9.890;2022-12-05T18:26:06;12.10;;;7.40;;
60030;SDS011;45901;47.600;9.890;2022-12-05T18:28:35;14.03;;;9.43;;
60030;SDS011;45901;47.600;9.890;2022-12-05T18:31:04;12.27;;;8.90;;
60030;SDS011;45901;47.600;9.890;2022-12-05T18:33:34;10.23;;;7.10;;
60030;SDS011;45901;47.600;9.890;2022-12-05T18:36:02;8.00;;;5.47;;
60030;SDS011;45901;47.600;9.890;2022-12-05T18:38:35;9.80;;;5.70;;
60030;SDS011;45901;47.600;9.890;2022-12-05T18:41:03;11.83;;;6.17;;
60030;SDS011;45901;47.600;9.890;2022-12-05T18:43:31;8.90;;;6.30;;
60030;SDS011;45901;47.600;9.890;2022-12-05T18:45:59;8.50;;;5.87;;
60030;SDS011;45901;47.600;9.890;2022-12-05T18:48:28;5.13;;;3.80;;
60030;SDS011;45901;47.600;9.890;2022-12-05T18:51:06;4.93;;;3.30;;
60030;SDS011;45901;47.600;9.890;2022-12-05T18:53:36;4.47;;;3.37;;
60030;SDS011;45901;47.600;9.890;2022-12-05T18:56:04;4.80;;;3.07;;
60030;SDS011;45901;47.600;9.890;2022-12-05T18:58:33;6.43;;;3.00;;
60030;SDS011;45901;47.600;9.890;2022-12-05T19:01:04;3.73;;;2.53;;
60030;SDS011;45901;47.600;9.890;2022-12-05T19:03:33;6.50;;;3.50;;
60030;SDS011;45901;47.600;9.890;2022-12-05T19:06:09;8.33;;;4.17;;
60030;SDS011;45901;47.600;9.890;2022-12-05T19:08:39;9.37;;;5.30;;
60030;SDS011;45901;47.600;9.890;2022-12-05T19:11:08;8.20;;;4.93;;
60030;SDS011;45901;47.600;9.890;2022-12-05T19:13:36;6.90;;;3.80;;
60030;SDS011;45901;47.600;9.890;2022-12-05T19:16:04;5.70;;;3.60;;
60030;SDS011;45901;47.600;9.890;2022-12-05T19:18:33;6.50;;;4.60;;
60030;SDS011;45901;47.600;9.890;2022-12-05T19:21:01;8.90;;;5.23;;
60030;SDS011;45901;47.600;9.890;2022-12-05T19:23:32;8.47;;;4.87;;
60030;SDS011;45901;47.600;9.890;2022-12-05T19:26:00;6.50;;;4.60;;
60030;SDS011;45901;47.600;9.890;2022-12-05T19:28:28;8.00;;;5.37;;
60030;SDS011;45901;47.600;9.890;2022-12-05T19:30:58;8.13;;;5.67;;
60030;SDS011;45901;47.600;9.890;2022-12-05T19:33:30;9.83;;;6.03;;
60030;SDS011;45901;47.600;9.890;2022-12-05T19:36:03;9.47;;;6.30;;
60030;SDS011;45901;47.600;9.890;2022-12-05T19:38:36;7.80;;;5.40;;
60030;SDS011;45901;47.600;9.890;2022-12-05T19:41:05;10.47;;;5.53;;
60030;SDS011;45901;47.600;9.890;2022-12-05T19:43:34;7.17;;;4.63;;
60030;SDS011;45901;47.600;9.890;2022-12-05T19:46:02;7.57;;;4.40;;
60030;SDS011;45901;47.600;9.890;2022-12-05T19:48:31;8.43;;;5.10;;
60030;SDS011;45901;47.600;9.890;2022-12-05T19:50:59;8.13;;;4.87;;
60030;SDS011;45901;47.600;9.890;2022-12-05T19:53:28;7.87;;;5.10;;
60030;SDS011;45901;47.600;9.890;2022-12-05T19:56:01;9.13;;;4.43;;
60030;SDS011;45901;47.600;9.890;2022-12-05T19:58:30;6.97;;;5.07;;
60030;SDS011;45901;47.600;9.890;2022-12-05T20:01:05;8.97;;;4.33;;
60030;SDS011;45901;47.600;9.890;2022-12-05T20:03:33;7.07;;;4.20;;
60030;SDS011;45901;47.600;9.890;2022-12-05T20:06:01;6.63;;;4.20;;
60030;SDS011;45901;47.600;9.890;2022-12-05T20:08:28;8.27;;;4.43;;
60030;SDS011;45901;47.600;9.890;2022-12-05T20:10:56;5.90;;;3.63;;
60030;SDS011;45901;47.600;9.890;2022-12-05T20:13:31;7.37;;;4.03;;
60030;SDS011;45901;47.600;9.890;2022-12-05T20:15:59;5.17;;;3.23;;
60030;SDS011;45901;47.600;9.890;2022-12-05T20:18:28;6.83;;;3.90;;
60030;SDS011;45901;47.600;9.890;2022-12-05T20:20:55;6.17;;;3.27;;
60030;SDS011;45901;47.600;9.890;2022-12-05T20:23:23;5.33;;;3.07;;
60030;SDS011;45901;47.600;9.890;2022-12-05T20:25:51;5.00;;;3.07;;
60030;SDS011;45901;47.600;9.890;2022-12-05T20:28:20;6.50;;;3.40;;
60030;SDS011;45901;47.600;9.890;2022-12-05T20:30:48;6.87;;;3.00;;
60030;SDS011;45901;47.600;9.890;2022-12-05T20:33:15;6.20;;;3.10;;
60030;SDS011;45901;47.600;9.890;2022-12-05T20:35:42;7.47;;;2.93;;
60030;SDS011;45901;47.600;9.890;2022-12-05T20:38:09;4.33;;;2.60;;
60030;SDS011;45901;47.600;9.890;2022-12-05T20:40:37;3.80;;;2.87;;
60030;SDS011;45901;47.600;9.890;2022-12-05T20:43:04;4.87;;;2.80;;
60030;SDS011;45901;47.600;9.890;2022-12-05T20:45:33;5.10;;;3.27;;
60030;SDS011;45901;47.600;9.890;2022-12-05T20:48:01;6.23;;;3.40;;
60030;SDS011;45901;47.600;9.890;2022-12-05T20:50:28;6.47;;;3.63;;
60030;SDS011;45901;47.600;9.890;2022-12-05T20:52:55;6.33;;;3.73;;
60030;SDS011;45901;47.600;9.890;2022-12-05T20:55:22;6.63;;;3.73;;
60030;SDS011;45901;47.600;9.890;2022-12-05T20:57:50;5.73;;;3.90;;
60030;SDS011;45901;47.600;9.890;2022-12-05T21:00:17;7.33;;;4.13;;
60030;SDS011;45901;47.600;9.890;2022-12-05T21:02:47;5.23;;;3.50;;
60030;SDS011;45901;47.600;9.890;2022-12-05T21:05:14;6.47;;;3.37;;
60030;SDS011;45901;47.600;9.890;2022-12-05T21:07:41;5.60;;;2.90;;
60030;SDS011;45901;47.600;9.890;2022-12-05T21:10:09;5.40;;;3.20;;
60030;SDS011;45901;47.600;9.890;2022-12-05T21:12:37;5.63;;;2.90;;
60030;SDS011;45901;47.600;9.890;2022-12-05T21:15:04;4.57;;;2.10;;
60030;SDS011;45901;47.600;9.890;2022-12-05T21:17:33;5.00;;;2.17;;
60030;SDS011;45901;47.600;9.890;2022-12-05T21:20:02;3.70;;;1.50;;
60030;SDS011;45901;47.600;9.890;2022-12-05T21:22:30;3.60;;;2.10;;
60030;SDS011;45901;47.600;9.890;2022-12-05T21:24:58;3.33;;;1.93;;
60030;SDS011;45901;47.600;9.890;2022-12-05T21:27:25;2.80;;;1.90;;
60030;SDS011;45901;47.600;9.890;2022-12-05T21:29:52;2.73;;;1.63;;
60030;SDS011;45901;47.600;9.890;2022-12-05T21:32:19;4.10;;;2.13;;
60030;SDS011;45901;47.600;9.890;2022-12-05T21:34:47;2.30;;;1.97;;
60030;SDS011;45901;47.600;9.890;2022-12-05T21:37:15;3.43;;;1.90;;
60030;SDS011;45901;47.600;9.890;2022-12-05T21:39:42;2.73;;;1.93;;
60030;SDS011;45901;47.600;9.890;2022-12-05T21:42:10;3.93;;;1.70;;
60030;SDS011;45901;47.600;9.890;2022-12-05T21:44:37;3.60;;;1.87;;
60030;SDS011;45901;47.600;9.890;2022-12-05T21:47:04;2.83;;;1.57;;
60030;SDS011;45901;47.600;9.890;2022-12-05T21:49:31;1.87;;;1.33;;
60030;SDS011;45901;47.600;9.890;2022-12-05T21:51:59;2.90;;;1.53;;
60030;SDS011;45901;47.600;9.890;2022-12-05T21:54:27;4.00;;;2.20;;
60030;SDS011;45901;47.600;9.890;2022-12-05T21:56:55;5.00;;;2.67;;
60030;SDS011;45901;47.600;9.890;2022-12-05T21:59:23;5.03;;;2.47;;
60030;SDS011;45901;47.600;9.890;2022-12-05T22:01:51;4.80;;;3.00;;
60030;SDS011;45901;47.600;9.890;2022-12-05T22:04:18;8.67;;;3.00;;
60030;SDS011;45901;47.600;9.890;2022-12-05T22:06:45;5.13;;;2.60;;
60030;SDS011;45901;47.600;9.890;2022-12-05T22:09:12;4.17;;;2.40;;
60030;SDS011;45901;47.600;9.890;2022-12-05T22:11:41;3.57;;;2.53;;
60030;SDS011;45901;47.600;9.890;2022-12-05T22:14:08;4.27;;;3.43;;
60030;SDS011;45901;47.600;9.890;2022-12-05T22:16:35;4.20;;;2.70;;
60030;SDS011;45901;47.600;9.890;2022-12-05T22:19:03;4.23;;;2.90;;
60030;SDS011;45901;47.600;9.890;2022-12-05T22:21:30;4.33;;;2.73;;
60030;SDS011;45901;47.600;9.890;2022-12-05T22:23:58;4.47;;;3.03;;
60030;SDS011;45901;47.600;9.890;2022-12-05T22:26:25;4.53;;;2.83;;
60030;SDS011;45901;47.600;9.890;2022-12-05T22:28:54;4.93;;;3.13;;
60030;SDS011;45901;47.600;9.890;2022-12-05T22:31:22;4.83;;;2.90;;
60030;SDS011;45901;47.600;9.890;2022-12-05T22:33:49;4.60;;;2.60;;
60030;SDS011;45901;47.600;9.890;2022-12-05T22:36:18;6.60;;;3.83;;
60030;SDS011;45901;47.600;9.890;2022-12-05T22:38:46;6.53;;;3.50;;
60030;SDS011;45901;47.600;9.890;2022-12-05T22:41:14;3.57;;;2.20;;
60030;SDS011;45901;47.600;9.890;2022-12-05T22:43:43;5.87;;;2.87;;
60030;SDS011;45901;47.600;9.890;2022-12-05T22:46:14;5.17;;;3.13;;
60030;SDS011;45901;47.600;9.890;2022-12-05T22:48:43;6.50;;;3.83;;
60030;SDS011;45901;47.600;9.890;2022-12-05T22:51:11;6.90;;;4.00;;
60030;SDS011;45901;47.600;9.890;2022-12-05T22:53:39;5.70;;;3.83;;
60030;SDS011;45901;47.600;9.890;2022-12-05T22:56:07;8.37;;;3.97;;
60030;SDS011;45901;47.600;9.890;2022-12-05T22:58:36;6.00;;;3.60;;
60030;SDS011;45901;47.600;9.890;2022-12-05T23:01:08;4.73;;;3.57;;
60030;SDS011;45901;47.600;9.890;2022-12-05T23:03:38;5.37;;;3.40;;
60030;SDS011;45901;47.600;9.890;2022-12-05T23:06:07;5.03;;;3.53;;
60030;SDS011;45901;47.600;9.890;2022-12-05T23:08:36;4.77;;;2.63;;
60030;SDS011;45901;47.600;9.890;2022-12-05T23:11:04;4.07;;;2.87;;
60030;SDS011;45901;47.600;9.890;2022-12-05T23:13:32;4.27;;;2.77;;
60030;SDS011;45901;47.600;9.890;2022-12-05T23:16:03;4.87;;;2.50;;
60030;SDS011;45901;47.600;9.890;2022-12-05T23:18:33;3.43;;;2.20;;
60030;SDS011;45901;47.600;9.890;2022-12-05T23:21:13;3.70;;;2.33;;
60030;SDS011;45901;47.600;9.890;2022-12-05T23:23:42;3.77;;;2.20;;
60030;SDS011;45901;47.600;9.890;2022-12-05T23:26:10;3.40;;;2.20;;
60030;SDS011;45901;47.600;9.890;2022-12-05T23:28:39;5.20;;;2.30;;
60030;SDS011;45901;47.600;9.890;2022-12-05T23:31:07;3.60;;;2.30;;
60030;SDS011;45901;47.600;9.890;2022-12-05T23:33:36;4.40;;;2.57;;
60030;SDS011;45901;47.600;9.890;2022-12-05T23:36:05;3.07;;;2.10;;
60030;SDS011;45901;47.600;9.890;2022-12-05T23:38:35;3.20;;;2.10;;
60030;SDS011;45901;47.600;9.890;2022-12-05T23:41:06;3.90;;;2.03;;
60030;SDS011;45901;47.600;9.890;2022-12-05T23:43:36;3.87;;;2.40;;
